Flight Track Log - Related Links

Times and Time Zones

All times are in EDT time to prevent confusion due to time zone crossing. See the UAL582 flight status page for this flight to view local times or setup timezone preferences in your user account.

Time Position Orientation Groundspeed Altitude Reporting Facility
EDT Latitude Longitude Course Direction KTS MPH feet Rate Location/Type
Mon 06:37:54 PM 42.1167 -83.5500 90° East 250 288 12,000  Level Toronto Center
Mon 06:38:54 PM 42.1167 -83.4333 90° East 260 299 12,000 -200 Level Toronto Center
Mon 06:39:54 PM 42.1167 -83.3333 90° East 260 299 11,600 -650 Descending Toronto Center
Mon 06:40:54 PM 42.1333 -83.2500 75° East 260 299 10,700 -1,150 Descending Toronto Center
Mon 06:41:54 PM 42.2000 -83.1833 37° Northeast 240 276 9,300 -1,250 Descending Toronto Center
Mon 06:42:54 PM 42.2500 -83.1500 26° Northeast 230 265 8,200 -650 Descending Toronto Center
Mon 06:43:54 PM 42.3000 -83.1000 36° Northeast 220 253 8,000 -100 Descending Toronto Center
Mon 06:44:54 PM 42.3500 -83.0667 26° Northeast 220 253 8,000  Level Toronto Center
Mon 06:45:54 PM 42.4000 -83.0167 36° Northeast 220 253 8,000 -533 Level Toronto Center
Mon 06:47:54 PM 42.4833 -83.0500 344° North 180 207 6,400 -667 Descending Toronto Center
Mon 06:48:54 PM 42.4667 -83.1167 251° West 170 196 6,000 -350 Descending Toronto Center
Mon 06:49:54 PM 42.4333 -83.1500 216° Southwest 180 207 5,700 -83 Descending Toronto Center
Mon 06:52:00 PM 42.4815 -83.5514 279° West  Level FlightAware Approximate
Mon 06:59:00 PM 42.5746 -84.9040 277° West  Level FlightAware Approximate
Mon 07:00:00 PM 42.5848 -85.0972 274° West  Level FlightAware Approximate
Mon 07:01:00 PM 42.5941 -85.2908 274° West  Level FlightAware Approximate
Mon 07:02:00 PM 42.6031 -85.4845 274° West  Level FlightAware Approximate
Mon 07:03:00 PM 42.6117 -85.6783 274° West  Level FlightAware Approximate
Mon 07:04:00 PM 42.6200 -85.8720 273° West  Level FlightAware Approximate
Mon 07:05:00 PM 42.6280 -86.0659 273° West  Level FlightAware Approximate
Mon 07:06:00 PM 42.6333 -86.2599 270° West  Level FlightAware Approximate
Mon 07:07:00 PM 42.5970 -86.4472 257° West  Level FlightAware Approximate
Mon 07:08:00 PM 42.5624 -86.6458 257° West  Level FlightAware Approximate
Mon 07:09:00 PM 42.5165 -86.8397 250° West  Level FlightAware Approximate
Mon 07:10:00 PM 42.4670 -87.0321 251° West  Level FlightAware Approximate
Mon 07:11:00 PM 42.4150 -87.2218 246° West  Level FlightAware Approximate
Mon 07:12:00 PM 42.3672 -87.4136 257° West  Level FlightAware Approximate
Mon 07:13:00 PM 42.2850 -87.5656 206° Southwest  Level FlightAware Approximate
Mon 07:14:00 PM 42.1739 -87.6927 217° Southwest  Level FlightAware Approximate
Mon 07:15:00 PM 42.0632 -87.8202 217° Southwest  Level FlightAware Approximate
Mon 07:16:00 PM 41.9817 -87.9067 206° Southwest  Level Estimated
Mon 07:17:00 PM 41.9817 -87.9067 206° Southwest  Level Estimated
Mon 07:18:00 PM 41.9817 -87.9067 206° Southwest  Level Estimated
Mon 07:19:00 PM 41.9817 -87.9067 206° Southwest  Level Estimated
Mon 07:20:00 PM 41.9817 -87.9067 206° Southwest  Level Estimated
Mon 07:21:00 PM 41.9817 -87.9067 206° Southwest  Level Estimated
Mon 07:22:00 PM 41.9817 -87.9067 206° Southwest  Level Estimated
Mon 07:23:00 PM 41.9817 -87.9067 206° Southwest  Level Estimated
Mon 07:24:00 PM 41.9817 -87.9067 206° Southwest  Level Estimated
Mon 07:25:00 PM 41.9817 -87.9067 206° Southwest  Level Estimated
Mon 07:26:00 PM 41.9817 -87.9067 206° Southwest  Level Estimated
Mon 07:27:00 PM 41.9817 -87.9067 206° Southwest  Level Estimated
Mon 07:28:00 PM 41.9817 -87.9067 206° Southwest  Level Estimated
Mon 07:29:00 PM 41.9817 -87.9067 206° Southwest  Level Estimated
Mon 07:30:00 PM 41.9817 -87.9067 206° Southwest  Level Estimated
Mon 07:31:00 PM 41.9817 -87.9067 206° Southwest  Level Estimated
Mon 07:32:00 PM 41.9817 -87.9067 206° Southwest  Level Estimated
Mon 07:33:00 PM 41.9817 -87.9067 206° Southwest  Level Estimated
Mon 07:34:00 PM 41.9817 -87.9067 206° Southwest  Level Estimated
Mon 07:34:48 PM 43.6833 -79.5333 206° Southwest 170 196 2,200  Level Toronto Center
Mon 07:35:00 PM 41.9817 -87.9067 206° Southwest  Level Estimated
Mon 07:35:48 PM 43.7333 -79.5000 26° Northeast 230 265 4,100  Level Toronto Center
Mon 07:36:00 PM 41.9817 -87.9067 206° Southwest  Level Estimated
Mon 07:36:48 PM 43.8000 -79.5000 360° North 270 311 7,500  Level Toronto Center
Mon 07:37:00 PM 41.9817 -87.9067 206° Southwest  Level Estimated
Mon 07:37:48 PM 43.8500 -79.5667 316° Northwest 290 334 10,600  Level Toronto Center
Mon 07:38:00 PM 41.9817 -87.9067 206° Southwest  Level Estimated
Mon 07:38:48 PM 43.9167 -79.6333 324° Northwest 300 345 12,900  Level Toronto Center
Mon 07:39:00 PM 41.9817 -87.9067 206° Southwest  Level Estimated
Mon 07:39:48 PM 43.9833 -79.7333 313° West 330 380 15,600  Level Toronto Center
Mon 07:40:00 PM 41.9817 -87.9067 206° Southwest  Level Estimated
Mon 07:40:48 PM 44.0333 -79.8333 305° West 340 391 17,600  Level Toronto Center
Mon 07:41:48 PM 44.1000 -79.9333 313° West 360 414 19,900 2,050 Climbing Toronto Center
Mon 07:42:48 PM 44.1667 -80.0500 309° West 360 414 21,700 1,750 Climbing Toronto Center
Mon 07:43:48 PM 44.2333 -80.1667 309° West 370 426 23,400 1,600 Climbing Toronto Center
Mon 07:44:48 PM 44.2833 -80.2833 301° West 380 437 24,900 1,400 Climbing Toronto Center
Mon 07:45:48 PM 44.3333 -80.4333 295° West 380 437 26,200 1,200 Climbing Toronto Center
Mon 07:46:48 PM 44.2833 -80.5333 235° Southwest 390 449 27,300 1,250 Climbing Toronto Center
Mon 07:47:48 PM 44.2333 -80.7000 247° West 400 460 28,700 1,300 Climbing Toronto Center
Mon 07:48:48 PM 44.1833 -80.8167 239° Southwest 410 472 29,900 1,000 Climbing Toronto Center
Mon 07:49:48 PM 44.1000 -80.9500 229° Southwest 420 483 30,700 1,100 Climbing Toronto Center
Mon 07:50:48 PM 44.0500 -81.1167 247° West 430 495 32,100 1,350 Climbing Toronto Center
Mon 07:51:48 PM 44.0000 -81.2500 243° Southwest 420 483 33,400 950 Climbing Toronto Center
Mon 07:52:48 PM 43.9333 -81.4167 241° Southwest 420 483 34,000 300 Climbing Toronto Center
Mon 07:53:48 PM 43.8833 -81.5500 243° Southwest 440 506 34,000  Level Toronto Center
Mon 07:54:48 PM 43.8333 -81.6833 243° Southwest 440 506 34,000  Level Toronto Center
Mon 07:55:48 PM 43.7667 -81.8500 241° Southwest 430 495 34,000  Level Toronto Center
Mon 07:56:48 PM 43.7000 -81.9833 235° Southwest 430 495 34,000  Level Toronto Center
Mon 07:57:48 PM 43.6333 -82.1167 235° Southwest 440 506 34,000  Level Toronto Center
Mon 07:58:24 PM 43.6239 -82.2147 262° West 437 503 34,000  Level Cleveland Center
Mon 07:59:24 PM 43.5614 -82.3592 239° Southwest 437 503 34,000  Level Cleveland Center
Mon 08:00:24 PM 43.5008 -82.5036 240° Southwest 437 503 34,000  Level Cleveland Center
Mon 08:01:24 PM 43.4400 -82.6503 240° Southwest 437 503 34,000  Level Cleveland Center
Mon 08:02:24 PM 43.3789 -82.7939 240° Southwest 437 503 34,000  Level Cleveland Center
Mon 08:03:24 PM 43.3156 -82.9400 239° Southwest 442 509 34,000  Level Cleveland Center
Mon 08:04:24 PM 43.2522 -83.0831 239° Southwest 442 509 34,000 -100 Level Cleveland Center
Mon 08:05:24 PM 43.1817 -83.2511 240° Southwest 451 519 33,800 -550 Descending Cleveland Center
Mon 08:06:24 PM 43.1178 -83.4017 240° Southwest 457 526 32,900 -950 Descending Cleveland Center
Mon 08:07:24 PM 43.0536 -83.5494 239° Southwest 457 526 31,900 -1,000 Descending Cleveland Center
Mon 08:08:24 PM 42.9911 -83.7000 240° Southwest 457 526 30,900 -1,000 Descending Cleveland Center
Mon 08:09:24 PM 42.9575 -83.8656 255° West 457 526 29,900 -1,000 Descending Cleveland Center
Mon 08:10:24 PM 42.9381 -84.0347 261° West 457 526 28,900 -955 Descending Cleveland Center
Mon 08:12:01 PM 42.9150 -84.2800 263° West 450 518 27,400 -981 Descending Chicago Center
Mon 08:13:03 PM 42.8947 -84.4772 262° West 440 506 26,300 -672 Descending Chicago Center
Mon 08:14:06 PM 42.8786 -84.6383 262° West 431 496 26,000 -144 Descending Chicago Center
Mon 08:15:08 PM 42.8619 -84.7981 262° West 427 491 26,000  Level Chicago Center
Mon 08:16:10 PM 42.8456 -84.9564 262° West 425 489 26,000  Level Chicago Center
Mon 08:17:12 PM 42.8286 -85.1147 262° West 423 487 26,000 -435 Level Chicago Center
Mon 08:18:14 PM 42.8114 -85.2728 262° West 422 486 25,100 -871 Descending Chicago Center
Mon 08:19:16 PM 42.7939 -85.4317 262° West 424 488 24,200 -1,113 Descending Chicago Center
Mon 08:20:18 PM 42.7644 -85.6181 258° West 418 481 22,800 -1,161 Descending Chicago Center
Mon 08:21:20 PM 42.7372 -85.7711 256° West 415 478 21,800 -968 Descending Chicago Center
Mon 08:22:22 PM 42.7094 -85.9222 256° West 410 472 20,800 -871 Descending Chicago Center
Mon 08:23:24 PM 42.6831 -86.0686 256° West 399 459 20,000 -387 Descending Chicago Center
Mon 08:24:26 PM 42.6572 -86.2111 256° West 388 447 20,000  Level Chicago Center
Mon 08:25:28 PM 42.6294 -86.3494 255° West 379 436 20,000 -720 Level Chicago Center
Mon 08:26:31 PM 42.6033 -86.4892 256° West 380 437 18,500 -1,824 Descending Chicago Center
Mon 08:27:33 PM 42.5739 -86.6481 256° West 363 418 16,200 -1,984 Descending Chicago Center
Mon 08:28:35 PM 42.5483 -86.7769 255° West 355 409 14,400 -1,742 Descending Chicago Center
Mon 08:29:37 PM 42.5156 -86.8919 249° West 334 384 12,600 -1,742 Descending Chicago Center
Mon 08:30:39 PM 42.4856 -87.0078 251° West 327 376 10,800 -1,355 Descending Chicago Center
Mon 08:31:41 PM 42.4536 -87.1147 248° West 308 354 9,800 -1,210 Descending Chicago Center
Mon 08:32:43 PM 42.3867 -87.1697 211° Southwest 293 337 8,300 -1,452 Descending Chicago Center
Mon 08:33:45 PM 42.3075 -87.2158 203° Southwest 288 331 6,800 -1,403 Descending Chicago Center
Mon 08:34:47 PM 42.2358 -87.2561 203° Southwest 280 322 5,400 -919 Descending Chicago Center
Mon 08:35:49 PM 42.1514 -87.3039 203° Southwest 277 319 4,900 -677 Descending Chicago Center
Mon 08:36:51 PM 42.0819 -87.3444 203° Southwest 273 314 4,000 -435 Descending Chicago Center
Mon 08:37:53 PM 42.0175 -87.3869 206° Southwest 264 304 4,000  Level Chicago Center
Mon 08:38:55 PM 42.0028 -87.4592 255° West 221 254 4,000  Level Chicago Center
Mon 08:39:57 PM 42.0019 -87.5372 269° West 214 246 4,000  Level Chicago Center
Mon 08:41:00 PM 42.0031 -87.6297 271° West 210 242 4,000 -242 Level Chicago Center
Mon 08:42:01 PM 42.0031 -87.7069 270° West 210 242 3,500 -492 Descending Chicago Center

Login

Don't have an account? Register now (free) for customized features, flight alerts, and more!